sensor_id;sensor_type;location;lat;lon;timestamp;temperature;humidity
1367;DHT22;16877;48.810;9.282;2024-03-29T00:00:39;18.30;35.10
1367;DHT22;16877;48.810;9.282;2024-03-29T00:03:06;18.30;35.20
1367;DHT22;16877;48.810;9.282;2024-03-29T00:05:32;18.30;35.20
1367;DHT22;16877;48.810;9.282;2024-03-29T00:07:58;18.30;35.20
1367;DHT22;16877;48.810;9.282;2024-03-29T00:10:24;18.40;35.30
1367;DHT22;16877;48.810;9.282;2024-03-29T00:12:51;18.40;35.40
1367;DHT22;16877;48.810;9.282;2024-03-29T00:15:17;18.40;35.40
1367;DHT22;16877;48.810;9.282;2024-03-29T00:17:43;18.40;35.40
1367;DHT22;16877;48.810;9.282;2024-03-29T00:20:09;18.40;35.40
1367;DHT22;16877;48.810;9.282;2024-03-29T00:22:35;18.40;35.40
1367;DHT22;16877;48.810;9.282;2024-03-29T00:25:01;18.40;35.40
1367;DHT22;16877;48.810;9.282;2024-03-29T00:27:27;18.40;35.50
1367;DHT22;16877;48.810;9.282;2024-03-29T00:29:55;18.40;35.40
1367;DHT22;16877;48.810;9.282;2024-03-29T00:32:20;18.50;35.60
1367;DHT22;16877;48.810;9.282;2024-03-29T00:34:46;18.50;35.50
1367;DHT22;16877;48.810;9.282;2024-03-29T00:37:12;18.50;35.50
1367;DHT22;16877;48.810;9.282;2024-03-29T00:39:38;18.50;35.60
1367;DHT22;16877;48.810;9.282;2024-03-29T00:42:04;18.50;35.50
1367;DHT22;16877;48.810;9.282;2024-03-29T00:44:30;18.50;35.60
1367;DHT22;16877;48.810;9.282;2024-03-29T00:46:57;18.50;35.60
1367;DHT22;16877;48.810;9.282;2024-03-29T00:49:23;18.50;35.60
1367;DHT22;16877;48.810;9.282;2024-03-29T00:51:48;18.50;35.60
1367;DHT22;16877;48.810;9.282;2024-03-29T00:54:14;18.50;35.60
1367;DHT22;16877;48.810;9.282;2024-03-29T00:56:40;18.50;35.70
1367;DHT22;16877;48.810;9.282;2024-03-29T00:59:06;18.50;35.70
1367;DHT22;16877;48.810;9.282;2024-03-29T01:01:31;18.50;35.60
1367;DHT22;16877;48.810;9.282;2024-03-29T01:03:59;18.50;35.70
1367;DHT22;16877;48.810;9.282;2024-03-29T01:06:25;18.60;35.70
1367;DHT22;16877;48.810;9.282;2024-03-29T01:08:50;18.60;35.60
1367;DHT22;16877;48.810;9.282;2024-03-29T01:11:16;18.60;35.70
1367;DHT22;16877;48.810;9.282;2024-03-29T01:13:42;18.60;35.60
1367;DHT22;16877;48.810;9.282;2024-03-29T01:16:08;18.60;35.50
1367;DHT22;16877;48.810;9.282;2024-03-29T01:18:33;18.70;35.70
1367;DHT22;16877;48.810;9.282;2024-03-29T01:21:01;18.70;35.50
1367;DHT22;16877;48.810;9.282;2024-03-29T01:23:26;18.70;35.50
1367;DHT22;16877;48.810;9.282;2024-03-29T01:25:54;18.70;35.40
1367;DHT22;16877;48.810;9.282;2024-03-29T01:28:20;18.80;35.50
1367;DHT22;16877;48.810;9.282;2024-03-29T01:30:51;18.80;35.40
1367;DHT22;16877;48.810;9.282;2024-03-29T01:33:17;18.80;35.30
1367;DHT22;16877;48.810;9.282;2024-03-29T01:35:43;18.90;35.40
1367;DHT22;16877;48.810;9.282;2024-03-29T01:38:10;18.80;35.30
1367;DHT22;16877;48.810;9.282;2024-03-29T01:40:36;18.80;35.30
1367;DHT22;16877;48.810;9.282;2024-03-29T01:43:02;18.80;35.20
1367;DHT22;16877;48.810;9.282;2024-03-29T01:45:29;18.80;35.20
1367;DHT22;16877;48.810;9.282;2024-03-29T01:47:56;18.90;35.30
1367;DHT22;16877;48.810;9.282;2024-03-29T01:50:22;18.90;35.20
1367;DHT22;16877;48.810;9.282;2024-03-29T01:52:50;18.90;35.10
1367;DHT22;16877;48.810;9.282;2024-03-29T01:55:18;18.90;35.00
1367;DHT22;16877;48.810;9.282;2024-03-29T01:57:45;18.90;35.10
1367;DHT22;16877;48.810;9.282;2024-03-29T02:00:12;18.90;35.10
1367;DHT22;16877;48.810;9.282;2024-03-29T02:02:39;18.80;35.00
1367;DHT22;16877;48.810;9.282;2024-03-29T02:05:07;18.90;35.00
1367;DHT22;16877;48.810;9.282;2024-03-29T02:07:35;18.90;34.90
1367;DHT22;16877;48.810;9.282;2024-03-29T02:10:02;18.80;35.00
1367;DHT22;16877;48.810;9.282;2024-03-29T02:12:30;18.80;34.90
1367;DHT22;16877;48.810;9.282;2024-03-29T02:14:57;18.80;34.80
1367;DHT22;16877;48.810;9.282;2024-03-29T02:17:25;18.80;34.80
1367;DHT22;16877;48.810;9.282;2024-03-29T02:19:51;18.80;34.80
1367;DHT22;16877;48.810;9.282;2024-03-29T02:22:17;18.70;34.70
1367;DHT22;16877;48.810;9.282;2024-03-29T02:24:46;18.70;34.70
1367;DHT22;16877;48.810;9.282;2024-03-29T02:27:13;18.70;34.70
1367;DHT22;16877;48.810;9.282;2024-03-29T02:29:40;18.70;34.90
1367;DHT22;16877;48.810;9.282;2024-03-29T02:32:07;18.70;34.80
1367;DHT22;16877;48.810;9.282;2024-03-29T02:34:34;18.70;34.70
1367;DHT22;16877;48.810;9.282;2024-03-29T02:37:02;18.70;34.80
1367;DHT22;16877;48.810;9.282;2024-03-29T02:39:28;18.70;34.80
1367;DHT22;16877;48.810;9.282;2024-03-29T02:41:56;18.70;34.70
1367;DHT22;16877;48.810;9.282;2024-03-29T02:44:23;18.70;34.80
1367;DHT22;16877;48.810;9.282;2024-03-29T02:46:50;18.70;34.70
1367;DHT22;16877;48.810;9.282;2024-03-29T02:49:16;18.60;34.80
1367;DHT22;16877;48.810;9.282;2024-03-29T02:51:42;18.70;34.90
1367;DHT22;16877;48.810;9.282;2024-03-29T02:54:10;18.70;34.90
1367;DHT22;16877;48.810;9.282;2024-03-29T02:56:35;18.60;35.00
1367;DHT22;16877;48.810;9.282;2024-03-29T02:59:03;18.70;35.00
1367;DHT22;16877;48.810;9.282;2024-03-29T03:01:29;18.70;35.00
1367;DHT22;16877;48.810;9.282;2024-03-29T03:03:56;18.70;34.80
1367;DHT22;16877;48.810;9.282;2024-03-29T03:06:21;18.70;34.70
1367;DHT22;16877;48.810;9.282;2024-03-29T03:08:48;18.70;34.60
1367;DHT22;16877;48.810;9.282;2024-03-29T03:11:32;18.70;34.60
1367;DHT22;16877;48.810;9.282;2024-03-29T03:13:59;18.60;34.40
1367;DHT22;16877;48.810;9.282;2024-03-29T03:16:27;18.60;34.50
1367;DHT22;16877;48.810;9.282;2024-03-29T03:18:53;18.60;34.60
1367;DHT22;16877;48.810;9.282;2024-03-29T03:21:19;18.60;35.20
1367;DHT22;16877;48.810;9.282;2024-03-29T03:23:46;18.60;34.70
1367;DHT22;16877;48.810;9.282;2024-03-29T03:26:12;18.60;34.60
1367;DHT22;16877;48.810;9.282;2024-03-29T03:28:38;18.60;34.60
1367;DHT22;16877;48.810;9.282;2024-03-29T03:31:04;18.60;34.80
1367;DHT22;16877;48.810;9.282;2024-03-29T03:33:34;18.50;34.70
1367;DHT22;16877;48.810;9.282;2024-03-29T03:35:59;18.60;34.80
1367;DHT22;16877;48.810;9.282;2024-03-29T03:38:27;18.60;34.80
1367;DHT22;16877;48.810;9.282;2024-03-29T03:40:52;18.60;34.70
1367;DHT22;16877;48.810;9.282;2024-03-29T03:43:19;18.60;35.20
1367;DHT22;16877;48.810;9.282;2024-03-29T03:45:45;18.60;34.60
1367;DHT22;16877;48.810;9.282;2024-03-29T03:48:13;18.60;34.50
1367;DHT22;16877;48.810;9.282;2024-03-29T03:50:40;18.70;34.60
1367;DHT22;16877;48.810;9.282;2024-03-29T03:53:07;18.70;34.50
1367;DHT22;16877;48.810;9.282;2024-03-29T03:55:35;18.70;34.60
1367;DHT22;16877;48.810;9.282;2024-03-29T03:58:02;18.70;34.30
1367;DHT22;16877;48.810;9.282;2024-03-29T04:00:28;18.80;34.30
1367;DHT22;16877;48.810;9.282;2024-03-29T04:02:55;18.80;34.30
1367;DHT22;16877;48.810;9.282;2024-03-29T04:05:22;18.80;34.20
1367;DHT22;16877;48.810;9.282;2024-03-29T04:07:51;18.90;34.30
1367;DHT22;16877;48.810;9.282;2024-03-29T04:10:17;19.00;34.40
1367;DHT22;16877;48.810;9.282;2024-03-29T04:12:44;19.00;34.50
1367;DHT22;16877;48.810;9.282;2024-03-29T04:15:09;19.00;34.60
1367;DHT22;16877;48.810;9.282;2024-03-29T04:17:36;19.00;34.70
1367;DHT22;16877;48.810;9.282;2024-03-29T04:20:02;19.10;34.90
1367;DHT22;16877;48.810;9.282;2024-03-29T04:22:30;19.10;35.00
1367;DHT22;16877;48.810;9.282;2024-03-29T04:24:57;19.10;35.00
1367;DHT22;16877;48.810;9.282;2024-03-29T04:27:24;19.20;35.20
1367;DHT22;16877;48.810;9.282;2024-03-29T04:29:51;19.20;35.40
1367;DHT22;16877;48.810;9.282;2024-03-29T04:32:18;19.20;35.40
1367;DHT22;16877;48.810;9.282;2024-03-29T04:34:46;19.20;35.60
1367;DHT22;16877;48.810;9.282;2024-03-29T04:37:13;19.20;35.70
1367;DHT22;16877;48.810;9.282;2024-03-29T04:39:40;19.20;35.80
1367;DHT22;16877;48.810;9.282;2024-03-29T04:42:09;19.20;35.80
1367;DHT22;16877;48.810;9.282;2024-03-29T04:44:36;19.20;35.80
1367;DHT22;16877;48.810;9.282;2024-03-29T04:47:03;19.20;35.90
1367;DHT22;16877;48.810;9.282;2024-03-29T04:49:29;19.20;35.90
1367;DHT22;16877;48.810;9.282;2024-03-29T04:52:00;19.20;35.90
1367;DHT22;16877;48.810;9.282;2024-03-29T04:54:27;19.20;35.90
1367;DHT22;16877;48.810;9.282;2024-03-29T04:56:53;19.20;35.90
1367;DHT22;16877;48.810;9.282;2024-03-29T04:59:21;19.30;36.00
1367;DHT22;16877;48.810;9.282;2024-03-29T05:01:49;19.30;36.00
1367;DHT22;16877;48.810;9.282;2024-03-29T05:04:16;19.30;36.00
1367;DHT22;16877;48.810;9.282;2024-03-29T05:06:50;19.20;35.90
1367;DHT22;16877;48.810;9.282;2024-03-29T05:09:17;19.30;36.20
1367;DHT22;16877;48.810;9.282;2024-03-29T05:11:43;19.30;36.90
1367;DHT22;16877;48.810;9.282;2024-03-29T05:14:12;19.30;36.30
1367;DHT22;16877;48.810;9.282;2024-03-29T05:16:40;19.30;36.40
1367;DHT22;16877;48.810;9.282;2024-03-29T05:19:07;19.30;36.40
1367;DHT22;16877;48.810;9.282;2024-03-29T05:21:34;19.30;36.40
1367;DHT22;16877;48.810;9.282;2024-03-29T05:24:00;19.30;36.40
1367;DHT22;16877;48.810;9.282;2024-03-29T05:26:27;19.20;36.30
1367;DHT22;16877;48.810;9.282;2024-03-29T05:28:53;19.20;36.30
1367;DHT22;16877;48.810;9.282;2024-03-29T05:31:23;19.20;36.30
1367;DHT22;16877;48.810;9.282;2024-03-29T05:33:51;19.20;36.20
1367;DHT22;16877;48.810;9.282;2024-03-29T05:36:18;19.20;36.10
1367;DHT22;16877;48.810;9.282;2024-03-29T05:38:44;19.20;36.00
1367;DHT22;16877;48.810;9.282;2024-03-29T05:41:11;19.10;35.90
1367;DHT22;16877;48.810;9.282;2024-03-29T05:43:38;19.20;35.90
1367;DHT22;16877;48.810;9.282;2024-03-29T05:46:05;19.20;35.90
1367;DHT22;16877;48.810;9.282;2024-03-29T05:48:32;19.30;36.10
1367;DHT22;16877;48.810;9.282;2024-03-29T05:51:00;19.30;36.00
1367;DHT22;16877;48.810;9.282;2024-03-29T05:53:26;19.40;36.10
1367;DHT22;16877;48.810;9.282;2024-03-29T05:55:53;19.40;36.10
1367;DHT22;16877;48.810;9.282;2024-03-29T05:58:19;19.40;36.20
1367;DHT22;16877;48.810;9.282;2024-03-29T06:00:46;19.40;36.30
1367;DHT22;16877;48.810;9.282;2024-03-29T06:03:13;19.40;36.30
1367;DHT22;16877;48.810;9.282;2024-03-29T06:05:40;19.50;36.50
1367;DHT22;16877;48.810;9.282;2024-03-29T06:08:09;19.50;36.40
1367;DHT22;16877;48.810;9.282;2024-03-29T06:10:35;19.50;36.40
1367;DHT22;16877;48.810;9.282;2024-03-29T06:13:02;19.50;36.30
1367;DHT22;16877;48.810;9.282;2024-03-29T06:15:35;19.50;36.30
1367;DHT22;16877;48.810;9.282;2024-03-29T06:18:20;19.60;36.40
1367;DHT22;16877;48.810;9.282;2024-03-29T06:20:47;19.60;36.30
1367;DHT22;16877;48.810;9.282;2024-03-29T06:23:15;19.60;36.30
1367;DHT22;16877;48.810;9.282;2024-03-29T06:25:42;19.60;36.30
1367;DHT22;16877;48.810;9.282;2024-03-29T06:28:08;19.60;36.40
1367;DHT22;16877;48.810;9.282;2024-03-29T06:30:35;19.70;36.50
1367;DHT22;16877;48.810;9.282;2024-03-29T06:33:02;19.70;36.50
1367;DHT22;16877;48.810;9.282;2024-03-29T06:35:29;19.70;36.40
1367;DHT22;16877;48.810;9.282;2024-03-29T06:37:56;19.70;36.40
1367;DHT22;16877;48.810;9.282;2024-03-29T06:40:24;19.80;36.40
1367;DHT22;16877;48.810;9.282;2024-03-29T06:42:51;19.80;36.40
1367;DHT22;16877;48.810;9.282;2024-03-29T06:45:18;19.80;36.30
1367;DHT22;16877;48.810;9.282;2024-03-29T06:47:45;19.90;36.30
1367;DHT22;16877;48.810;9.282;2024-03-29T06:50:11;19.90;36.20
1367;DHT22;16877;48.810;9.282;2024-03-29T06:52:38;19.90;35.80
1367;DHT22;16877;48.810;9.282;2024-03-29T06:55:05;19.90;35.90
1367;DHT22;16877;48.810;9.282;2024-03-29T06:57:34;20.00;36.00
1367;DHT22;16877;48.810;9.282;2024-03-29T07:00:01;20.10;36.00
1367;DHT22;16877;48.810;9.282;2024-03-29T07:02:29;20.10;36.10
1367;DHT22;16877;48.810;9.282;2024-03-29T07:04:55;20.10;36.00
1367;DHT22;16877;48.810;9.282;2024-03-29T07:07:22;20.20;36.00
1367;DHT22;16877;48.810;9.282;2024-03-29T07:09:49;20.20;36.10
1367;DHT22;16877;48.810;9.282;2024-03-29T07:12:16;20.30;36.10
1367;DHT22;16877;48.810;9.282;2024-03-29T07:14:44;20.30;36.00
1367;DHT22;16877;48.810;9.282;2024-03-29T07:17:11;20.40;36.10
1367;DHT22;16877;48.810;9.282;2024-03-29T07:19:38;20.40;36.10
1367;DHT22;16877;48.810;9.282;2024-03-29T07:22:04;20.40;36.60
1367;DHT22;16877;48.810;9.282;2024-03-29T07:24:31;20.40;36.00
1367;DHT22;16877;48.810;9.282;2024-03-29T07:26:58;20.40;36.00
1367;DHT22;16877;48.810;9.282;2024-03-29T07:29:24;20.40;36.00
1367;DHT22;16877;48.810;9.282;2024-03-29T07:31:52;20.40;36.20
1367;DHT22;16877;48.810;9.282;2024-03-29T07:34:19;20.40;36.10
1367;DHT22;16877;48.810;9.282;2024-03-29T07:36:46;20.40;36.10
1367;DHT22;16877;48.810;9.282;2024-03-29T07:39:12;20.40;36.10
1367;DHT22;16877;48.810;9.282;2024-03-29T07:41:39;20.40;36.10
1367;DHT22;16877;48.810;9.282;2024-03-29T07:44:06;20.40;36.30
1367;DHT22;16877;48.810;9.282;2024-03-29T07:46:34;20.30;36.70
1367;DHT22;16877;48.810;9.282;2024-03-29T07:49:03;20.30;37.80
1367;DHT22;16877;48.810;9.282;2024-03-29T07:51:29;20.30;38.30
1367;DHT22;16877;48.810;9.282;2024-03-29T07:53:56;20.30;39.30
1367;DHT22;16877;48.810;9.282;2024-03-29T07:56:23;20.30;39.80
1367;DHT22;16877;48.810;9.282;2024-03-29T07:58:51;20.20;40.40
1367;DHT22;16877;48.810;9.282;2024-03-29T08:01:19;20.20;41.10
1367;DHT22;16877;48.810;9.282;2024-03-29T08:03:46;20.20;41.60
1367;DHT22;16877;48.810;9.282;2024-03-29T08:06:14;20.10;41.90
1367;DHT22;16877;48.810;9.282;2024-03-29T08:08:43;20.10;42.20
1367;DHT22;16877;48.810;9.282;2024-03-29T08:11:10;20.00;42.60
1367;DHT22;16877;48.810;9.282;2024-03-29T08:13:37;20.00;42.70
1367;DHT22;16877;48.810;9.282;2024-03-29T08:16:04;20.00;42.80
1367;DHT22;16877;48.810;9.282;2024-03-29T08:18:31;20.00;42.90
1367;DHT22;16877;48.810;9.282;2024-03-29T08:20:59;20.00;43.30
1367;DHT22;16877;48.810;9.282;2024-03-29T08:23:27;20.00;43.30
1367;DHT22;16877;48.810;9.282;2024-03-29T08:25:53;19.90;43.30
1367;DHT22;16877;48.810;9.282;2024-03-29T08:28:21;19.90;43.30
1367;DHT22;16877;48.810;9.282;2024-03-29T08:30:57;19.80;43.20
1367;DHT22;16877;48.810;9.282;2024-03-29T08:33:24;19.80;43.30
1367;DHT22;16877;48.810;9.282;2024-03-29T08:35:51;19.70;43.30
1367;DHT22;16877;48.810;9.282;2024-03-29T08:38:17;19.70;43.30
1367;DHT22;16877;48.810;9.282;2024-03-29T08:40:45;19.70;43.60
1367;DHT22;16877;48.810;9.282;2024-03-29T08:43:13;19.60;43.90
1367;DHT22;16877;48.810;9.282;2024-03-29T08:45:40;19.50;44.50
1367;DHT22;16877;48.810;9.282;2024-03-29T08:48:07;19.50;44.40
1367;DHT22;16877;48.810;9.282;2024-03-29T08:50:34;19.50;44.80
1367;DHT22;16877;48.810;9.282;2024-03-29T08:53:01;19.60;45.10
1367;DHT22;16877;48.810;9.282;2024-03-29T08:55:28;19.60;45.50
1367;DHT22;16877;48.810;9.282;2024-03-29T08:57:57;19.60;45.80
1367;DHT22;16877;48.810;9.282;2024-03-29T09:00:24;19.60;45.80
1367;DHT22;16877;48.810;9.282;2024-03-29T09:02:50;19.60;45.80
1367;DHT22;16877;48.810;9.282;2024-03-29T09:05:17;19.70;46.10
1367;DHT22;16877;48.810;9.282;2024-03-29T09:07:44;19.70;46.50
1367;DHT22;16877;48.810;9.282;2024-03-29T09:10:11;19.80;46.60
1367;DHT22;16877;48.810;9.282;2024-03-29T09:12:38;19.80;46.70
1367;DHT22;16877;48.810;9.282;2024-03-29T09:15:06;19.80;46.80
1367;DHT22;16877;48.810;9.282;2024-03-29T09:17:38;19.90;47.00
1367;DHT22;16877;48.810;9.282;2024-03-29T09:20:05;19.90;46.90
1367;DHT22;16877;48.810;9.282;2024-03-29T09:22:32;20.00;47.10
1367;DHT22;16877;48.810;9.282;2024-03-29T09:24:59;20.00;47.20
1367;DHT22;16877;48.810;9.282;2024-03-29T09:27:27;20.00;47.50
1367;DHT22;16877;48.810;9.282;2024-03-29T09:29:54;20.00;48.00
1367;DHT22;16877;48.810;9.282;2024-03-29T09:32:22;20.00;48.30
1367;DHT22;16877;48.810;9.282;2024-03-29T09:34:49;20.00;48.50
1367;DHT22;16877;48.810;9.282;2024-03-29T09:37:16;20.00;48.80
1367;DHT22;16877;48.810;9.282;2024-03-29T09:39:45;20.10;48.90
1367;DHT22;16877;48.810;9.282;2024-03-29T09:42:15;20.10;48.90
1367;DHT22;16877;48.810;9.282;2024-03-29T09:44:44;20.10;49.00
1367;DHT22;16877;48.810;9.282;2024-03-29T09:47:14;20.10;49.00
1367;DHT22;16877;48.810;9.282;2024-03-29T09:49:42;20.20;49.10
1367;DHT22;16877;48.810;9.282;2024-03-29T09:52:11;20.20;49.20
1367;DHT22;16877;48.810;9.282;2024-03-29T09:54:38;20.30;49.30
1367;DHT22;16877;48.810;9.282;2024-03-29T09:57:05;20.30;49.30
1367;DHT22;16877;48.810;9.282;2024-03-29T09:59:32;20.30;49.40
1367;DHT22;16877;48.810;9.282;2024-03-29T10:02:00;20.30;49.40
1367;DHT22;16877;48.810;9.282;2024-03-29T10:04:31;20.30;49.90
1367;DHT22;16877;48.810;9.282;2024-03-29T10:07:00;20.30;50.00
1367;DHT22;16877;48.810;9.282;2024-03-29T10:09:27;20.30;49.90
1367;DHT22;16877;48.810;9.282;2024-03-29T10:11:57;20.30;50.30
1367;DHT22;16877;48.810;9.282;2024-03-29T10:14:24;20.30;50.40
1367;DHT22;16877;48.810;9.282;2024-03-29T10:16:51;20.30;50.30
1367;DHT22;16877;48.810;9.282;2024-03-29T10:19:19;20.40;50.50
1367;DHT22;16877;48.810;9.282;2024-03-29T10:21:46;20.50;50.50
1367;DHT22;16877;48.810;9.282;2024-03-29T10:24:14;20.50;50.40
1367;DHT22;16877;48.810;9.282;2024-03-29T10:26:42;20.60;50.30
1367;DHT22;16877;48.810;9.282;2024-03-29T10:29:09;20.70;50.30
1367;DHT22;16877;48.810;9.282;2024-03-29T10:31:36;20.80;50.30
1367;DHT22;16877;48.810;9.282;2024-03-29T10:34:03;20.90;50.30
1367;DHT22;16877;48.810;9.282;2024-03-29T10:36:31;20.90;50.30
1367;DHT22;16877;48.810;9.282;2024-03-29T10:39:01;21.00;50.40
1367;DHT22;16877;48.810;9.282;2024-03-29T10:41:30;21.10;50.50
1367;DHT22;16877;48.810;9.282;2024-03-29T10:43:57;21.10;50.60
1367;DHT22;16877;48.810;9.282;2024-03-29T10:46:26;21.20;50.50
1367;DHT22;16877;48.810;9.282;2024-03-29T10:48:54;21.30;50.60
1367;DHT22;16877;48.810;9.282;2024-03-29T10:51:22;21.40;50.70
1367;DHT22;16877;48.810;9.282;2024-03-29T10:53:48;21.40;50.70
1367;DHT22;16877;48.810;9.282;2024-03-29T10:56:16;21.50;50.80
1367;DHT22;16877;48.810;9.282;2024-03-29T10:58:49;21.50;50.80
1367;DHT22;16877;48.810;9.282;2024-03-29T11:01:17;21.50;50.70
1367;DHT22;16877;48.810;9.282;2024-03-29T11:03:50;21.60;51.00
1367;DHT22;16877;48.810;9.282;2024-03-29T11:06:18;21.70;50.90
1367;DHT22;16877;48.810;9.282;2024-03-29T11:08:48;21.80;50.90
1367;DHT22;16877;48.810;9.282;2024-03-29T11:11:17;21.80;50.90
1367;DHT22;16877;48.810;9.282;2024-03-29T11:13:49;21.80;50.70
1367;DHT22;16877;48.810;9.282;2024-03-29T11:16:19;21.90;50.70
1367;DHT22;16877;48.810;9.282;2024-03-29T11:18:47;22.00;50.80
1367;DHT22;16877;48.810;9.282;2024-03-29T11:21:15;22.10;50.70
1367;DHT22;16877;48.810;9.282;2024-03-29T11:23:48;22.10;50.60
1367;DHT22;16877;48.810;9.282;2024-03-29T11:26:16;22.20;50.70
1367;DHT22;16877;48.810;9.282;2024-03-29T11:28:50;22.20;50.50
1367;DHT22;16877;48.810;9.282;2024-03-29T11:31:17;22.30;50.60
1367;DHT22;16877;48.810;9.282;2024-03-29T11:33:45;22.30;50.60
1367;DHT22;16877;48.810;9.282;2024-03-29T11:36:15;22.40;50.60
1367;DHT22;16877;48.810;9.282;2024-03-29T11:38:42;22.50;50.60
1367;DHT22;16877;48.810;9.282;2024-03-29T11:41:11;22.50;50.60
1367;DHT22;16877;48.810;9.282;2024-03-29T11:43:39;22.60;50.50
1367;DHT22;16877;48.810;9.282;2024-03-29T11:46:10;22.60;50.50
1367;DHT22;16877;48.810;9.282;2024-03-29T11:48:37;22.60;50.40
1367;DHT22;16877;48.810;9.282;2024-03-29T11:51:05;22.70;50.40
1367;DHT22;16877;48.810;9.282;2024-03-29T11:53:34;22.70;50.30
1367;DHT22;16877;48.810;9.282;2024-03-29T11:56:02;22.70;50.20
1367;DHT22;16877;48.810;9.282;2024-03-29T11:58:30;22.70;50.00
1367;DHT22;16877;48.810;9.282;2024-03-29T12:00:58;22.70;49.90
1367;DHT22;16877;48.810;9.282;2024-03-29T12:03:28;22.70;50.00
1367;DHT22;16877;48.810;9.282;2024-03-29T12:05:56;22.80;49.90
1367;DHT22;16877;48.810;9.282;2024-03-29T12:08:28;22.80;49.80
1367;DHT22;16877;48.810;9.282;2024-03-29T12:10:55;22.80;49.70
1367;DHT22;16877;48.810;9.282;2024-03-29T12:13:21;22.80;49.60
1367;DHT22;16877;48.810;9.282;2024-03-29T12:15:48;22.90;49.70
1367;DHT22;16877;48.810;9.282;2024-03-29T12:18:15;23.00;49.60
1367;DHT22;16877;48.810;9.282;2024-03-29T12:20:45;23.10;49.60
1367;DHT22;16877;48.810;9.282;2024-03-29T12:23:15;23.20;49.60
1367;DHT22;16877;48.810;9.282;2024-03-29T12:25:42;23.40;49.50
1367;DHT22;16877;48.810;9.282;2024-03-29T12:28:10;23.50;49.70
1367;DHT22;16877;48.810;9.282;2024-03-29T12:30:38;23.70;49.60
1367;DHT22;16877;48.810;9.282;2024-03-29T12:33:08;23.80;49.50
1367;DHT22;16877;48.810;9.282;2024-03-29T12:35:36;24.00;49.50
1367;DHT22;16877;48.810;9.282;2024-03-29T12:38:05;24.00;49.30
1367;DHT22;16877;48.810;9.282;2024-03-29T12:40:33;24.20;49.30
1367;DHT22;16877;48.810;9.282;2024-03-29T12:43:04;24.30;49.10
1367;DHT22;16877;48.810;9.282;2024-03-29T12:45:31;24.50;48.90
1367;DHT22;16877;48.810;9.282;2024-03-29T12:47:58;24.80;49.60
1367;DHT22;16877;48.810;9.282;2024-03-29T12:50:26;24.80;48.80
1367;DHT22;16877;48.810;9.282;2024-03-29T12:52:54;24.90;48.50
1367;DHT22;16877;48.810;9.282;2024-03-29T12:55:24;25.10;48.60
1367;DHT22;16877;48.810;9.282;2024-03-29T12:57:53;25.60;48.70
1367;DHT22;16877;48.810;9.282;2024-03-29T13:00:20;26.10;48.50
1367;DHT22;16877;48.810;9.282;2024-03-29T13:02:47;26.20;48.00
1367;DHT22;16877;48.810;9.282;2024-03-29T13:05:13;26.10;47.70
1367;DHT22;16877;48.810;9.282;2024-03-29T13:07:40;26.10;47.50
1367;DHT22;16877;48.810;9.282;2024-03-29T13:10:09;26.10;47.50
1367;DHT22;16877;48.810;9.282;2024-03-29T13:12:40;26.10;47.40
1367;DHT22;16877;48.810;9.282;2024-03-29T13:15:16;26.30;47.30
1367;DHT22;16877;48.810;9.282;2024-03-29T13:17:43;26.80;47.30
1367;DHT22;16877;48.810;9.282;2024-03-29T13:20:11;27.30;47.70
1367;DHT22;16877;48.810;9.282;2024-03-29T13:22:37;28.00;47.50
1367;DHT22;16877;48.810;9.282;2024-03-29T13:25:07;28.60;47.40
1367;DHT22;16877;48.810;9.282;2024-03-29T13:27:35;29.00;46.90
1367;DHT22;16877;48.810;9.282;2024-03-29T13:30:04;29.40;46.50
1367;DHT22;16877;48.810;9.282;2024-03-29T13:32:32;29.70;46.10
1367;DHT22;16877;48.810;9.282;2024-03-29T13:34:59;30.10;46.20
1367;DHT22;16877;48.810;9.282;2024-03-29T13:37:25;30.40;45.30
1367;DHT22;16877;48.810;9.282;2024-03-29T13:39:53;30.70;45.00
1367;DHT22;16877;48.810;9.282;2024-03-29T13:42:19;31.00;44.70
1367;DHT22;16877;48.810;9.282;2024-03-29T13:44:48;31.40;44.40
1367;DHT22;16877;48.810;9.282;2024-03-29T13:47:17;31.70;43.50
1367;DHT22;16877;48.810;9.282;2024-03-29T13:49:44;31.90;42.80
1367;DHT22;16877;48.810;9.282;2024-03-29T13:52:12;32.10;42.30
1367;DHT22;16877;48.810;9.282;2024-03-29T13:54:42;32.30;41.50
1367;DHT22;16877;48.810;9.282;2024-03-29T13:57:09;32.70;41.30
1367;DHT22;16877;48.810;9.282;2024-03-29T13:59:37;32.90;41.00
1367;DHT22;16877;48.810;9.282;2024-03-29T14:02:04;33.20;40.50
1367;DHT22;16877;48.810;9.282;2024-03-29T14:04:32;33.20;39.00
1367;DHT22;16877;48.810;9.282;2024-03-29T14:06:59;33.00;38.40
1367;DHT22;16877;48.810;9.282;2024-03-29T14:09:27;32.90;38.00
1367;DHT22;16877;48.810;9.282;2024-03-29T14:11:54;32.90;37.80
1367;DHT22;16877;48.810;9.282;2024-03-29T14:14:21;32.80;37.70
1367;DHT22;16877;48.810;9.282;2024-03-29T14:16:49;32.80;37.70
1367;DHT22;16877;48.810;9.282;2024-03-29T14:19:15;32.80;37.80
1367;DHT22;16877;48.810;9.282;2024-03-29T14:21:43;32.80;38.00
1367;DHT22;16877;48.810;9.282;2024-03-29T14:24:10;32.80;37.80
1367;DHT22;16877;48.810;9.282;2024-03-29T14:26:37;32.70;37.60
1367;DHT22;16877;48.810;9.282;2024-03-29T14:29:04;32.70;37.60
1367;DHT22;16877;48.810;9.282;2024-03-29T14:31:31;32.60;37.70
1367;DHT22;16877;48.810;9.282;2024-03-29T14:33:58;32.70;37.60
1367;DHT22;16877;48.810;9.282;2024-03-29T14:36:25;32.70;37.60
1367;DHT22;16877;48.810;9.282;2024-03-29T14:38:53;32.70;37.70
1367;DHT22;16877;48.810;9.282;2024-03-29T14:41:21;32.70;37.60
1367;DHT22;16877;48.810;9.282;2024-03-29T14:43:48;32.70;37.30
1367;DHT22;16877;48.810;9.282;2024-03-29T14:46:17;32.80;37.10
1367;DHT22;16877;48.810;9.282;2024-03-29T14:48:46;32.70;37.20
1367;DHT22;16877;48.810;9.282;2024-03-29T14:51:13;32.80;37.10
1367;DHT22;16877;48.810;9.282;2024-03-29T14:53:39;32.90;36.90
1367;DHT22;16877;48.810;9.282;2024-03-29T14:56:11;32.90;36.60
1367;DHT22;16877;48.810;9.282;2024-03-29T14:58:38;32.90;36.40
1367;DHT22;16877;48.810;9.282;2024-03-29T15:01:05;32.70;36.20
1367;DHT22;16877;48.810;9.282;2024-03-29T15:03:32;32.60;36.50
1367;DHT22;16877;48.810;9.282;2024-03-29T15:05:58;32.60;36.70
1367;DHT22;16877;48.810;9.282;2024-03-29T15:08:25;32.40;37.30
1367;DHT22;16877;48.810;9.282;2024-03-29T15:10:56;32.10;36.90
1367;DHT22;16877;48.810;9.282;2024-03-29T15:13:24;31.90;37.20
1367;DHT22;16877;48.810;9.282;2024-03-29T15:15:56;31.80;37.40
1367;DHT22;16877;48.810;9.282;2024-03-29T15:18:23;31.60;37.60
1367;DHT22;16877;48.810;9.282;2024-03-29T15:20:54;31.40;37.70
1367;DHT22;16877;48.810;9.282;2024-03-29T15:23:21;31.20;38.20
1367;DHT22;16877;48.810;9.282;2024-03-29T15:25:50;31.10;38.60
1367;DHT22;16877;48.810;9.282;2024-03-29T15:28:17;30.90;39.30
1367;DHT22;16877;48.810;9.282;2024-03-29T15:31:09;30.80;40.20
1367;DHT22;16877;48.810;9.282;2024-03-29T15:33:36;30.60;40.90
1367;DHT22;16877;48.810;9.282;2024-03-29T15:36:03;30.40;41.50
1367;DHT22;16877;48.810;9.282;2024-03-29T15:38:30;30.30;41.60
1367;DHT22;16877;48.810;9.282;2024-03-29T15:40:58;30.20;42.10
1367;DHT22;16877;48.810;9.282;2024-03-29T15:43:25;30.00;42.20
1367;DHT22;16877;48.810;9.282;2024-03-29T15:45:52;29.80;41.80